KPKB/PKB METAR and TAF weather

Enter ICAO airport designator
Station Type Date Time Source
KPKB METAR 2023/03/25 13:53 UTC NOAA

KPKB 251353Z 20011G23KT 10SM BKN023 BKN030 OVC039 17/13 A2954 RMK AO2 SLP001 T01670128


Station Type Date Time Source
KPKB Decoded METAR 2023/03/25 13:53 UTC NOAA

MID-OHIO VALLEY RGNL AIRPORT, WV, United States (KPKB) 39-20N 81-27W
Mar 25, 2023 - 09:53 AM EDT / 2023.03.25 1353 UTC
Wind: from the SSW (200 degrees) at 13 MPH (11 KT) gusting to 26 MPH (23 KT):0
Visibility: 10 mile(s):0
Sky conditions: overcast
Temperature: 62.1 F (16.7 C)
Dew Point: 55.0 F (12.8 C)
Relative Humidity: 77%
Pressure (altimeter): 29.54 in. Hg (1000 hPa)
ob: KPKB 251353Z 20011G23KT 10SM BKN023 BKN030 OVC039 17/13 A2954 RMK AO2 SLP001 T01670128
cycle: 14

Station Type Date Time Source
KPKB TAF 2023/03/25 13:33 UTC NOAA

TAF
AMD KPKB 251329Z 2513/2612 19017G18KT P6SM OVC035 WS020/18045KT
TEMPO 2513/2515 BKN025
FM251500 21020G33KT P6SM BKN070
FM251900 23025G41KT P6SM VCSH SCT050
FM252300 26022G34KT P6SM BKN035
FM260600 26010G16KT P6SM FEW240

Example: see airport list